Hitachimaru — JD2063 — position and weather

sailwx.info

Track history (hours):
 
Tides and Currents Weather Stations Pressure Air Temp Water Temp Dewpoint Dewpoint Depression Visibility Wind Speed Wind Dir Waves Ship Positions

Hitachimaru

Last reported at 2016-Aug-24 18:34 UTC. Time now 2016-Aug-25 02:41 UTC.
Position N 35°08' E 139°44'.

Length 83 m; draft 4.7 m.

Type: Cargo ship. MMSI: 431301756.

Date/timePositionNaut miles runAvg speedWind from/ knotsBaromVisibWave heightAir tempDewpointWater temp
2016-Aug-24 18:34N 35°08' E 139°44'1111.4
2016-Aug-24 17:34N 35°19' E 139°43'6 5.9
2016-Aug-24 16:34N 35°24' E 139°48'4 3.6
2016-Aug-24 15:34N 35°21' E 139°51'0 0.0
2016-Aug-24 14:34N 35°21' E 139°51'0 0.0
2016-Aug-24 13:34N 35°21' E 139°51'0 0.0
2016-Aug-24 12:32N 35°21' E 139°51'0 0.0
2016-Aug-24 11:29N 35°21' E 139°51'0 0.0
2016-Aug-24 10:32N 35°21' E 139°51'0 0.0
2016-Aug-24 09:32N 35°21' E 139°51'0 0.0
2016-Aug-24 08:32N 35°21' E 139°51'0 0.0
2016-Aug-24 07:29N 35°21' E 139°51'0 0.1
2016-Aug-24 06:32N 35°21' E 139°51'0 0.0
2016-Aug-24 04:31N 35°21' E 139°51'0 0.0
2016-Aug-24 03:28N 35°21' E 139°51'0 0.0
2016-Aug-24 02:31N 35°21' E 139°51'0 0.0
2016-Aug-24 01:31N 35°21' E 139°51'0 0.0
2016-Aug-24 00:31N 35°21' E 139°51'0 0.0
2016-Aug-23 23:28N 35°21' E 139°51'0 0.0
2016-Aug-23 22:31N 35°21' E 139°51'0 0.0
2016-Aug-23 21:31N 35°21' E 139°51'0 0.0
2016-Aug-23 20:31N 35°21' E 139°51'0 0.0
2016-Aug-23 19:31N 35°21' E 139°51'0 0.0
2016-Aug-23 18:31N 35°21' E 139°51'0 0.0
2016-Aug-23 17:31N 35°21' E 139°51'0 0.0
2016-Aug-23 16:28N 35°21' E 139°51'0 0.0
2016-Aug-23 15:31N 35°21' E 139°51'0 0.0
2016-Aug-23 14:28N 35°21' E 139°51'0 0.0
2016-Aug-23 13:31N 35°21' E 139°51'0 0.0
2016-Aug-23 12:31N 35°21' E 139°51'0 0.0
2016-Aug-23 11:31N 35°21' E 139°51'0 0.0
2016-Aug-23 10:31N 35°21' E 139°51'0 0.0
2016-Aug-23 09:31N 35°21' E 139°51'0 0.0
2016-Aug-23 08:31N 35°21' E 139°51'0 0.0
2016-Aug-23 07:31N 35°21' E 139°51'0 0.0
2016-Aug-23 06:31N 35°21' E 139°51'0 0.0
2016-Aug-23 05:31N 35°21' E 139°51'0 0.0
2016-Aug-23 04:31N 35°21' E 139°51'0 0.0
2016-Aug-23 03:31N 35°21' E 139°51'0 0.0
2016-Aug-23 02:31N 35°21' E 139°51'3 2.8
2016-Aug-23 01:33N 35°24' E 139°50'0 0.0
2016-Aug-23 00:32N 35°24' E 139°50'0 0.0
2016-Aug-22 23:32N 35°24' E 139°50'0 0.0
2016-Aug-22 22:29N 35°24' E 139°50'0 0.0
2016-Aug-22 21:32N 35°24' E 139°50'0 0.0
2016-Aug-22 20:32N 35°24' E 139°50'0 0.0
2016-Aug-22 19:32N 35°24' E 139°50'0 0.0
2016-Aug-22 18:32N 35°24' E 139°50'0 0.0
2016-Aug-22 17:32N 35°24' E 139°50'0 0.0
2016-Aug-22 16:32N 35°24' E 139°50'0 0.0
2016-Aug-22 15:29N 35°24' E 139°50'0 0.0
2016-Aug-22 14:33N 35°24' E 139°50'0 0.0
2016-Aug-22 13:32N 35°24' E 139°50'0 0.0
2016-Aug-22 12:33N 35°24' E 139°50'0 0.0
2016-Aug-22 11:34N 35°24' E 139°50'0 0.0
2016-Aug-22 10:31N 35°24' E 139°50'0 0.0
2016-Aug-22 09:33N 35°24' E 139°50'0 0.0
2016-Aug-22 08:33N 35°24' E 139°50'0 0.0
2016-Aug-22 07:33N 35°24' E 139°50'0 0.0
2016-Aug-22 06:31N 35°24' E 139°50'0 0.1
2016-Aug-22 05:33N 35°24' E 139°50'0 0.2
2016-Aug-22 04:33N 35°24' E 139°50'0 0.1
2016-Aug-22 03:33N 35°24' E 139°50'0 0.0
2016-Aug-22 02:33N 35°24' E 139°50'0 0.0
2016-Aug-22 01:33N 35°24' E 139°50'0 0.0
2016-Aug-22 00:32N 35°24' E 139°50'0 0.0
2016-Aug-21 23:33N 35°24' E 139°50'0 0.0
2016-Aug-21 22:33N 35°24' E 139°50'0 0.0
2016-Aug-21 21:29N 35°24' E 139°50'0 0.0
2016-Aug-21 20:33N 35°24' E 139°50'0 0.0
2016-Aug-21 19:34N 35°24' E 139°50'0 0.0
2016-Aug-21 18:33N 35°24' E 139°50'0 0.0
2016-Aug-21 17:32N 35°24' E 139°50'0 0.0
2016-Aug-21 16:32N 35°24' E 139°50'0 0.0
2016-Aug-21 15:30N 35°24' E 139°50'0 0.0
2016-Aug-21 14:33N 35°24' E 139°50'0 0.0
2016-Aug-21 13:32N 35°24' E 139°50'0 0.0
2016-Aug-21 12:26N 35°24' E 139°50'0 0.0
2016-Aug-21 11:31N 35°24' E 139°50'2 2.3
2016-Aug-21 10:33N 35°22' E 139°51'0 0.4
2016-Aug-21 09:30N 35°21' E 139°51'0 0.0
2016-Aug-21 08:33N 35°21' E 139°51'0 0.0
2016-Aug-21 07:33N 35°21' E 139°51'0 0.0
2016-Aug-21 06:33N 35°21' E 139°51'0 0.0
2016-Aug-21 05:33N 35°21' E 139°51'0 0.0
2016-Aug-21 04:33N 35°21' E 139°51'0 0.0
2016-Aug-21 03:33N 35°21' E 139°51'0 0.0
2016-Aug-21 02:33N 35°21' E 139°51'0 0.0
2016-Aug-21 01:30N 35°21' E 139°51'0 0.0
2016-Aug-21 00:33N 35°21' E 139°51'0 0.0
2016-Aug-20 23:30N 35°21' E 139°51'0 0.0
2016-Aug-20 22:30N 35°21' E 139°51'1 1.0
2016-Aug-20 21:33N 35°22' E 139°50'1 1.0
2016-Aug-20 20:32N 35°22' E 139°49'0 0.0
2016-Aug-20 19:29N 35°22' E 139°49'0 0.0
2016-Aug-20 18:29N 35°22' E 139°49'0 0.0
2016-Aug-20 17:32N 35°22' E 139°49'0 0.0
2016-Aug-20 16:29N 35°22' E 139°49'0 0.0
2016-Aug-20 15:29N 35°22' E 139°49'0 0.0
2016-Aug-20 14:23N 35°22' E 139°49'0 0.1
2016-Aug-20 13:32N 35°22' E 139°49'0 0.0
2016-Aug-20 12:32N 35°22' E 139°49'0 0.0
2016-Aug-20 11:23N 35°22' E 139°49'0 0.0
2016-Aug-20 10:32N 35°22' E 139°49'0 0.0
2016-Aug-20 09:32N 35°22' E 139°49'0 0.0
2016-Aug-20 08:32N 35°22' E 139°49'0 0.0
2016-Aug-20 07:32N 35°22' E 139°49'0 0.0
2016-Aug-20 06:32N 35°22' E 139°49'0 0.0
2016-Aug-20 05:32N 35°22' E 139°49'0 0.0
2016-Aug-20 04:32N 35°22' E 139°49'0 0.1
2016-Aug-20 03:32N 35°22' E 139°49'0 0.0
2016-Aug-20 02:29N 35°22' E 139°49'0 0.0
2016-Aug-20 01:32N 35°22' E 139°49'0 0.0
2016-Aug-20 00:32N 35°22' E 139°49'0 0.0
2016-Aug-19 23:32N 35°22' E 139°49'0 0.0
2016-Aug-19 22:32N 35°22' E 139°49'0 0.0
2016-Aug-19 21:32N 35°22' E 139°49'0 0.0
2016-Aug-19 20:32N 35°22' E 139°49'0 0.0
2016-Aug-19 19:32N 35°22' E 139°49'0 0.0
2016-Aug-19 18:32N 35°22' E 139°49'0 0.0
2016-Aug-19 17:28N 35°22' E 139°49'0 0.0
2016-Aug-19 16:31N 35°22' E 139°49'0 0.0
2016-Aug-19 15:31N 35°22' E 139°49'0 0.0
2016-Aug-19 14:31N 35°22' E 139°49'0 0.0
2016-Aug-19 13:31N 35°22' E 139°49'0 0.0
2016-Aug-19 12:28N 35°22' E 139°49'0 0.0
2016-Aug-19 11:31N 35°22' E 139°49'0 0.0
2016-Aug-19 10:31N 35°22' E 139°49'6 6.0
2016-Aug-19 09:33N 35°28' E 139°50'1212.4
2016-Aug-19 08:33N 35°38' E 139°58'2 1.9
2016-Aug-19 07:23N 35°40' E 139°57'0 0.0
2016-Aug-19 06:29N 35°40' E 139°57'0 0.0
2016-Aug-19 04:23N 35°40' E 139°57'0 0.0
2016-Aug-19 03:29N 35°40' E 139°57'0 0.0
2016-Aug-19 02:29N 35°40' E 139°57'0 0.0
2016-Aug-19 01:29N 35°40' E 139°57'0 0.0
2016-Aug-19 00:11N 35°40' E 139°57'0 0.0
2016-Aug-18 23:11N 35°40' E 139°57'0 0.0
2016-Aug-18 22:33N 35°40' E 139°57'3 3.4
2016-Aug-18 21:33N 35°37' E 139°57'0 0.0
2016-Aug-18 20:28N 35°37' E 139°57'0 0.1
2016-Aug-18 19:28N 35°37' E 139°58'0 0.0
2016-Aug-18 18:22N 35°37' E 139°58'0 0.0
2016-Aug-18 17:22N 35°37' E 139°58'5 6.7
2016-Aug-18 16:33N 35°32' E 139°54'1211.7
2016-Aug-18 15:33N 35°23' E 139°46'1111.0
2016-Aug-18 14:33N 35°12' E 139°47'1111.1
2016-Aug-18 13:33N 35°02' E 139°41'1111.4
2016-Aug-18 12:33N 34°55' E 139°29'218 5.8
2016-Aug-16 23:11N 34°26' E 135°07'812.0
2016-Aug-16 22:33N 34°31' E 135°14'1010.3
2016-Aug-16 21:33N 34°36' E 135°25'2 0.2
2016-Aug-16 10:16N 34°34' E 135°27'0 0.0
2016-Aug-16 09:22N 34°34' E 135°27'0 0.1
2016-Aug-16 07:33N 34°34' E 135°27'1 0.5
2016-Aug-16 04:26N 34°35' E 135°28'0 0.0
2016-Aug-15 21:30N 34°35' E 135°28'1 0.1
2016-Aug-15 07:08N 34°34' E 135°27'4 6.7
2016-Aug-15 06:34N 34°36' E 135°23'5 2.5
2016-Aug-15 04:29N 34°33' E 135°19'0 0.0
2016-Aug-15 03:29N 34°33' E 135°19'0 0.0
2016-Aug-15 02:29N 34°33' E 135°19'0 0.0
2016-Aug-15 01:11N 34°33' E 135°19'0 0.0
2016-Aug-14 23:17N 34°33' E 135°19'  
Track history (hours):
 
Tides and Currents Weather Stations Pressure Air Temp Water Temp Dewpoint Dewpoint Depression Visibility Wind Speed Wind Dir Waves Ship Positions

Hitachimaru

Last reported at 2016-Aug-24 18:34 UTC. Time now 2016-Aug-25 02:41 UTC.
Position N 35°08' E 139°44'.

Length 83 m; draft 4.7 m.

Type: Cargo ship. MMSI: 431301756.

Date/timePositionNaut miles runAvg speedWind from/ knotsBaromVisibWave heightAir tempDewpointWater temp
2016-Aug-24 18:34N 35°08' E 139°44'1111.4
2016-Aug-24 17:34N 35°19' E 139°43'6 5.9
2016-Aug-24 16:34N 35°24' E 139°48'4 3.6
2016-Aug-24 15:34N 35°21' E 139°51'0 0.0
2016-Aug-24 14:34N 35°21' E 139°51'0 0.0
2016-Aug-24 13:34N 35°21' E 139°51'0 0.0
2016-Aug-24 12:32N 35°21' E 139°51'0 0.0
2016-Aug-24 11:29N 35°21' E 139°51'0 0.0
2016-Aug-24 10:32N 35°21' E 139°51'0 0.0
2016-Aug-24 09:32N 35°21' E 139°51'0 0.0
2016-Aug-24 08:32N 35°21' E 139°51'0 0.0
2016-Aug-24 07:29N 35°21' E 139°51'0 0.1
2016-Aug-24 06:32N 35°21' E 139°51'0 0.0
2016-Aug-24 04:31N 35°21' E 139°51'0 0.0
2016-Aug-24 03:28N 35°21' E 139°51'0 0.0
2016-Aug-24 02:31N 35°21' E 139°51'0 0.0
2016-Aug-24 01:31N 35°21' E 139°51'0 0.0
2016-Aug-24 00:31N 35°21' E 139°51'0 0.0
2016-Aug-23 23:28N 35°21' E 139°51'0 0.0
2016-Aug-23 22:31N 35°21' E 139°51'0 0.0
2016-Aug-23 21:31N 35°21' E 139°51'0 0.0
2016-Aug-23 20:31N 35°21' E 139°51'0 0.0
2016-Aug-23 19:31N 35°21' E 139°51'0 0.0
2016-Aug-23 18:31N 35°21' E 139°51'0 0.0
2016-Aug-23 17:31N 35°21' E 139°51'0 0.0
2016-Aug-23 16:28N 35°21' E 139°51'0 0.0
2016-Aug-23 15:31N 35°21' E 139°51'0 0.0
2016-Aug-23 14:28N 35°21' E 139°51'0 0.0
2016-Aug-23 13:31N 35°21' E 139°51'0 0.0
2016-Aug-23 12:31N 35°21' E 139°51'0 0.0
2016-Aug-23 11:31N 35°21' E 139°51'0 0.0
2016-Aug-23 10:31N 35°21' E 139°51'0 0.0
2016-Aug-23 09:31N 35°21' E 139°51'0 0.0
2016-Aug-23 08:31N 35°21' E 139°51'0 0.0
2016-Aug-23 07:31N 35°21' E 139°51'0 0.0
2016-Aug-23 06:31N 35°21' E 139°51'0 0.0
2016-Aug-23 05:31N 35°21' E 139°51'0 0.0
2016-Aug-23 04:31N 35°21' E 139°51'0 0.0
2016-Aug-23 03:31N 35°21' E 139°51'0 0.0
2016-Aug-23 02:31N 35°21' E 139°51'3 2.8
2016-Aug-23 01:33N 35°24' E 139°50'0 0.0
2016-Aug-23 00:32N 35°24' E 139°50'0 0.0
2016-Aug-22 23:32N 35°24' E 139°50'0 0.0
2016-Aug-22 22:29N 35°24' E 139°50'0 0.0
2016-Aug-22 21:32N 35°24' E 139°50'0 0.0
2016-Aug-22 20:32N 35°24' E 139°50'0 0.0
2016-Aug-22 19:32N 35°24' E 139°50'0 0.0
2016-Aug-22 18:32N 35°24' E 139°50'0 0.0
2016-Aug-22 17:32N 35°24' E 139°50'0 0.0
2016-Aug-22 16:32N 35°24' E 139°50'0 0.0
2016-Aug-22 15:29N 35°24' E 139°50'0 0.0
2016-Aug-22 14:33N 35°24' E 139°50'0 0.0
2016-Aug-22 13:32N 35°24' E 139°50'0 0.0
2016-Aug-22 12:33N 35°24' E 139°50'0 0.0
2016-Aug-22 11:34N 35°24' E 139°50'0 0.0
2016-Aug-22 10:31N 35°24' E 139°50'0 0.0
2016-Aug-22 09:33N 35°24' E 139°50'0 0.0
2016-Aug-22 08:33N 35°24' E 139°50'0 0.0
2016-Aug-22 07:33N 35°24' E 139°50'0 0.0
2016-Aug-22 06:31N 35°24' E 139°50'0 0.1
2016-Aug-22 05:33N 35°24' E 139°50'0 0.2
2016-Aug-22 04:33N 35°24' E 139°50'0 0.1
2016-Aug-22 03:33N 35°24' E 139°50'0 0.0
2016-Aug-22 02:33N 35°24' E 139°50'0 0.0
2016-Aug-22 01:33N 35°24' E 139°50'0 0.0
2016-Aug-22 00:32N 35°24' E 139°50'0 0.0
2016-Aug-21 23:33N 35°24' E 139°50'0 0.0
2016-Aug-21 22:33N 35°24' E 139°50'0 0.0
2016-Aug-21 21:29N 35°24' E 139°50'0 0.0
2016-Aug-21 20:33N 35°24' E 139°50'0 0.0
2016-Aug-21 19:34N 35°24' E 139°50'0 0.0
2016-Aug-21 18:33N 35°24' E 139°50'0 0.0
2016-Aug-21 17:32N 35°24' E 139°50'0 0.0
2016-Aug-21 16:32N 35°24' E 139°50'0 0.0
2016-Aug-21 15:30N 35°24' E 139°50'0 0.0
2016-Aug-21 14:33N 35°24' E 139°50'0 0.0
2016-Aug-21 13:32N 35°24' E 139°50'0 0.0
2016-Aug-21 12:26N 35°24' E 139°50'0 0.0
2016-Aug-21 11:31N 35°24' E 139°50'2 2.3
2016-Aug-21 10:33N 35°22' E 139°51'0 0.4
2016-Aug-21 09:30N 35°21' E 139°51'0 0.0
2016-Aug-21 08:33N 35°21' E 139°51'0 0.0
2016-Aug-21 07:33N 35°21' E 139°51'0 0.0
2016-Aug-21 06:33N 35°21' E 139°51'0 0.0
2016-Aug-21 05:33N 35°21' E 139°51'0 0.0
2016-Aug-21 04:33N 35°21' E 139°51'0 0.0
2016-Aug-21 03:33N 35°21' E 139°51'0 0.0
2016-Aug-21 02:33N 35°21' E 139°51'0 0.0
2016-Aug-21 01:30N 35°21' E 139°51'0 0.0
2016-Aug-21 00:33N 35°21' E 139°51'0 0.0
2016-Aug-20 23:30N 35°21' E 139°51'0 0.0
2016-Aug-20 22:30N 35°21' E 139°51'1 1.0
2016-Aug-20 21:33N 35°22' E 139°50'1 1.0
2016-Aug-20 20:32N 35°22' E 139°49'0 0.0
2016-Aug-20 19:29N 35°22' E 139°49'0 0.0
2016-Aug-20 18:29N 35°22' E 139°49'0 0.0
2016-Aug-20 17:32N 35°22' E 139°49'0 0.0
2016-Aug-20 16:29N 35°22' E 139°49'0 0.0
2016-Aug-20 15:29N 35°22' E 139°49'0 0.0
2016-Aug-20 14:23N 35°22' E 139°49'0 0.1
2016-Aug-20 13:32N 35°22' E 139°49'0 0.0
2016-Aug-20 12:32N 35°22' E 139°49'0 0.0
2016-Aug-20 11:23N 35°22' E 139°49'0 0.0
2016-Aug-20 10:32N 35°22' E 139°49'0 0.0
2016-Aug-20 09:32N 35°22' E 139°49'0 0.0
2016-Aug-20 08:32N 35°22' E 139°49'0 0.0
2016-Aug-20 07:32N 35°22' E 139°49'0 0.0
2016-Aug-20 06:32N 35°22' E 139°49'0 0.0
2016-Aug-20 05:32N 35°22' E 139°49'0 0.0
2016-Aug-20 04:32N 35°22' E 139°49'0 0.1
2016-Aug-20 03:32N 35°22' E 139°49'0 0.0
2016-Aug-20 02:29N 35°22' E 139°49'0 0.0
2016-Aug-20 01:32N 35°22' E 139°49'0 0.0
2016-Aug-20 00:32N 35°22' E 139°49'0 0.0
2016-Aug-19 23:32N 35°22' E 139°49'0 0.0
2016-Aug-19 22:32N 35°22' E 139°49'0 0.0
2016-Aug-19 21:32N 35°22' E 139°49'0 0.0
2016-Aug-19 20:32N 35°22' E 139°49'0 0.0
2016-Aug-19 19:32N 35°22' E 139°49'0 0.0
2016-Aug-19 18:32N 35°22' E 139°49'0 0.0
2016-Aug-19 17:28N 35°22' E 139°49'0 0.0
2016-Aug-19 16:31N 35°22' E 139°49'0 0.0
2016-Aug-19 15:31N 35°22' E 139°49'0 0.0
2016-Aug-19 14:31N 35°22' E 139°49'0 0.0
2016-Aug-19 13:31N 35°22' E 139°49'0 0.0
2016-Aug-19 12:28N 35°22' E 139°49'0 0.0
2016-Aug-19 11:31N 35°22' E 139°49'0 0.0
2016-Aug-19 10:31N 35°22' E 139°49'6 6.0
2016-Aug-19 09:33N 35°28' E 139°50'1212.4
2016-Aug-19 08:33N 35°38' E 139°58'2 1.9
2016-Aug-19 07:23N 35°40' E 139°57'0 0.0
2016-Aug-19 06:29N 35°40' E 139°57'0 0.0
2016-Aug-19 04:23N 35°40' E 139°57'0 0.0
2016-Aug-19 03:29N 35°40' E 139°57'0 0.0
2016-Aug-19 02:29N 35°40' E 139°57'0 0.0
2016-Aug-19 01:29N 35°40' E 139°57'0 0.0
2016-Aug-19 00:11N 35°40' E 139°57'0 0.0
2016-Aug-18 23:11N 35°40' E 139°57'0 0.0
2016-Aug-18 22:33N 35°40' E 139°57'3 3.4
2016-Aug-18 21:33N 35°37' E 139°57'0 0.0
2016-Aug-18 20:28N 35°37' E 139°57'0 0.1
2016-Aug-18 19:28N 35°37' E 139°58'0 0.0
2016-Aug-18 18:22N 35°37' E 139°58'0 0.0
2016-Aug-18 17:22N 35°37' E 139°58'5 6.7
2016-Aug-18 16:33N 35°32' E 139°54'1211.7
2016-Aug-18 15:33N 35°23' E 139°46'1111.0
2016-Aug-18 14:33N 35°12' E 139°47'1111.1
2016-Aug-18 13:33N 35°02' E 139°41'1111.4
2016-Aug-18 12:33N 34°55' E 139°29'218 5.8
2016-Aug-16 23:11N 34°26' E 135°07'812.0
2016-Aug-16 22:33N 34°31' E 135°14'1010.3
2016-Aug-16 21:33N 34°36' E 135°25'2 0.2
2016-Aug-16 10:16N 34°34' E 135°27'0 0.0
2016-Aug-16 09:22N 34°34' E 135°27'0 0.1
2016-Aug-16 07:33N 34°34' E 135°27'1 0.5
2016-Aug-16 04:26N 34°35' E 135°28'0 0.0
2016-Aug-15 21:30N 34°35' E 135°28'1 0.1
2016-Aug-15 07:08N 34°34' E 135°27'4 6.7
2016-Aug-15 06:34N 34°36' E 135°23'5 2.5
2016-Aug-15 04:29N 34°33' E 135°19'0 0.0
2016-Aug-15 03:29N 34°33' E 135°19'0 0.0
2016-Aug-15 02:29N 34°33' E 135°19'0 0.0
2016-Aug-15 01:11N 34°33' E 135°19'0 0.0
2016-Aug-14 23:17N 34°33' E 135°19'  

Dump ship's entire track history